createdAt,value
2023-02-23T00:02:24.346Z,9.35
2023-02-23T00:04:52.427Z,9.40
2023-02-23T00:07:20.943Z,8.35
2023-02-23T00:09:52.959Z,8.32
2023-02-23T00:12:21.044Z,9.23
2023-02-23T00:14:49.047Z,9.43
2023-02-23T00:17:17.784Z,9.10
2023-02-23T00:19:49.284Z,8.80
2023-02-23T00:22:18.582Z,8.45
2023-02-23T00:24:50.186Z,9.02
2023-02-23T00:27:21.125Z,9.43
2023-02-23T00:29:50.965Z,9.52
2023-02-23T00:32:20.453Z,10.23
2023-02-23T00:34:49.680Z,9.15
2023-02-23T00:37:21.966Z,9.55
2023-02-23T00:39:50.076Z,9.52
2023-02-23T00:42:19.562Z,8.90
2023-02-23T00:44:48.937Z,9.02
2023-02-23T00:47:16.965Z,9.07
2023-02-23T00:49:45.436Z,9.50
2023-02-23T00:52:15.094Z,9.20
2023-02-23T00:54:43.319Z,9.18
2023-02-23T00:57:13.869Z,9.15
2023-02-23T00:59:47.991Z,8.95
2023-02-23T01:02:16.950Z,9.65
2023-02-23T01:04:45.079Z,9.15
2023-02-23T01:07:13.239Z,9.43
2023-02-23T01:09:41.838Z,9.10
2023-02-23T01:12:09.905Z,9.02
2023-02-23T01:14:38.706Z,10.10
2023-02-23T01:17:08.443Z,9.93
2023-02-23T01:19:38.035Z,8.82
2023-02-23T01:22:06.122Z,9.15
2023-02-23T01:24:34.044Z,9.75
2023-02-23T01:27:05.630Z,8.93
2023-02-23T01:29:35.073Z,11.48
2023-02-23T01:32:04.878Z,10.00
2023-02-23T01:34:34.419Z,10.43
2023-02-23T01:37:03.192Z,11.80
2023-02-23T01:39:33.605Z,11.20
2023-02-23T01:42:01.767Z,10.65
2023-02-23T01:45:21.214Z,11.77
2023-02-23T01:47:49.901Z,11.45
2023-02-23T01:50:20.840Z,12.00
2023-02-23T01:52:52.599Z,12.65
2023-02-23T01:55:24.556Z,11.95
2023-02-23T01:57:57.056Z,12.82
2023-02-23T02:00:27.842Z,12.32
2023-02-23T02:02:56.060Z,13.15
2023-02-23T02:05:26.721Z,12.27
2023-02-23T02:07:59.762Z,11.75
2023-02-23T02:10:40.940Z,12.65
2023-02-23T02:13:14.391Z,12.73
2023-02-23T02:18:32.755Z,13.68
2023-02-23T02:21:27.320Z,14.90
2023-02-23T02:24:40.766Z,13.65
2023-02-23T02:27:37.370Z,12.93
2023-02-23T02:30:42.826Z,13.85
2023-02-23T02:33:55.538Z,13.77
2023-02-23T02:37:07.130Z,13.32
2023-02-23T02:39:46.657Z,13.70
2023-02-23T02:42:23.600Z,13.38
2023-02-23T02:44:58.399Z,14.25
2023-02-23T02:47:31.533Z,13.95
2023-02-23T02:50:06.654Z,12.60
2023-02-23T02:52:41.305Z,14.80
2023-02-23T02:55:16.932Z,13.52
2023-02-23T02:57:47.764Z,13.88
2023-02-23T03:00:39.279Z,13.20
2023-02-23T03:03:27.152Z,14.32
2023-02-23T03:06:13.528Z,13.63
2023-02-23T03:09:08.723Z,13.05
2023-02-23T03:11:58.343Z,12.80
2023-02-23T03:14:52.151Z,13.00
2023-02-23T03:17:46.237Z,13.73
2023-02-23T03:20:41.728Z,12.63
2023-02-23T03:23:36.343Z,13.45
2023-02-23T03:26:27.989Z,12.05
2023-02-23T03:29:24.125Z,14.15
2023-02-23T03:32:18.917Z,13.77
2023-02-23T03:35:11.141Z,13.57
2023-02-23T03:38:00.349Z,13.80
2023-02-23T03:40:51.020Z,14.57
2023-02-23T03:43:41.936Z,15.20
2023-02-23T03:46:32.170Z,14.35
2023-02-23T03:49:22.589Z,14.27
2023-02-23T03:52:12.219Z,13.60
2023-02-23T03:55:04.694Z,13.18
2023-02-23T03:57:54.958Z,13.23
2023-02-23T04:00:46.881Z,12.55
2023-02-23T04:03:36.821Z,13.35
2023-02-23T04:06:24.912Z,15.20
2023-02-23T04:09:11.814Z,15.00
2023-02-23T04:12:05.655Z,14.35
2023-02-23T04:14:39.860Z,14.68
2023-02-23T04:17:10.913Z,13.85
2023-02-23T04:19:39.227Z,13.20
2023-02-23T04:22:07.160Z,13.60
2023-02-23T04:24:35.250Z,13.15
2023-02-23T04:27:11.016Z,14.48
2023-02-23T04:29:39.178Z,14.25
2023-02-23T04:32:09.427Z,14.68
2023-02-23T04:34:40.250Z,14.50
2023-02-23T04:37:08.525Z,14.15
2023-02-23T04:39:36.509Z,14.35
2023-02-23T04:42:04.792Z,14.35
2023-02-23T04:44:32.771Z,14.02
2023-02-23T04:47:00.737Z,15.20
2023-02-23T04:49:35.525Z,14.80
2023-02-23T04:52:03.530Z,13.10
2023-02-23T04:54:31.660Z,13.43
2023-02-23T04:56:59.622Z,13.75
2023-02-23T04:59:28.587Z,13.60
2023-02-23T05:01:56.571Z,13.18
2023-02-23T05:04:24.673Z,12.68
2023-02-23T05:06:56.490Z,12.40
2023-02-23T05:09:27.664Z,13.15
2023-02-23T05:11:56.676Z,13.82
2023-02-23T05:14:24.970Z,12.13
2023-02-23T05:16:55.291Z,12.93
2023-02-23T05:19:23.287Z,12.80
2023-02-23T05:21:52.449Z,11.98
2023-02-23T05:24:21.774Z,12.98
2023-02-23T05:26:49.923Z,11.45
2023-02-23T05:29:18.500Z,13.25
2023-02-23T05:31:48.515Z,12.35
2023-02-23T05:34:16.847Z,13.05
2023-02-23T05:36:44.940Z,14.45
2023-02-23T05:39:13.073Z,12.23
2023-02-23T05:41:42.468Z,12.27
2023-02-23T05:44:11.620Z,11.95
2023-02-23T05:46:39.522Z,12.68
2023-02-23T05:49:07.593Z,12.18
2023-02-23T05:51:36.149Z,11.95
2023-02-23T05:54:04.195Z,13.23
2023-02-23T05:56:32.255Z,11.82
2023-02-23T05:59:04.899Z,12.63
2023-02-23T06:01:35.823Z,11.75
2023-02-23T06:04:08.927Z,11.77
2023-02-23T06:06:39.061Z,12.68
2023-02-23T06:09:07.119Z,11.77
2023-02-23T06:11:37.789Z,11.88
2023-02-23T06:14:07.251Z,12.00
2023-02-23T06:16:35.666Z,12.27
2023-02-23T06:19:03.874Z,12.65
2023-02-23T06:21:32.244Z,12.82
2023-02-23T06:24:03.098Z,12.50
2023-02-23T06:26:31.515Z,12.43
2023-02-23T06:28:59.618Z,12.52
2023-02-23T06:31:31.631Z,13.20
2023-02-23T06:34:02.550Z,11.93
2023-02-23T06:36:32.963Z,13.25
2023-02-23T06:39:02.171Z,11.90
2023-02-23T06:41:31.116Z,11.63
2023-02-23T06:43:59.142Z,12.45
2023-02-23T06:46:28.491Z,12.48
2023-02-23T06:48:57.001Z,12.25
2023-02-23T06:51:25.307Z,12.05
2023-02-23T06:53:53.529Z,12.07
2023-02-23T06:56:21.799Z,13.02
2023-02-23T06:58:49.874Z,12.38
2023-02-23T07:01:18.893Z,13.30
2023-02-23T07:03:48.741Z,12.65
2023-02-23T07:06:16.739Z,12.63
2023-02-23T07:08:45.084Z,11.50
2023-02-23T07:11:15.688Z,11.52
2023-02-23T07:13:44.160Z,12.35
2023-02-23T07:16:14.928Z,12.10
2023-02-23T07:18:43.069Z,12.40
2023-02-23T07:21:12.483Z,13.00
2023-02-23T07:23:40.954Z,12.27
2023-02-23T07:26:09.748Z,11.88
2023-02-23T07:28:38.202Z,12.52
2023-02-23T07:31:06.562Z,12.00
2023-02-23T07:33:34.606Z,12.43
2023-02-23T07:36:02.875Z,12.20
2023-02-23T07:38:32.356Z,12.55
2023-02-23T07:41:00.329Z,13.50
2023-02-23T07:43:28.378Z,12.35
2023-02-23T07:45:59.846Z,12.20
2023-02-23T07:48:28.027Z,11.90
2023-02-23T07:50:58.211Z,12.45
2023-02-23T07:53:28.164Z,12.55
2023-02-23T07:56:01.292Z,12.70
2023-02-23T07:58:30.547Z,12.75
2023-02-23T08:00:58.842Z,12.10
2023-02-23T08:03:27.376Z,12.13
2023-02-23T08:05:55.390Z,12.30
2023-02-23T08:08:23.533Z,11.82
2023-02-23T08:10:51.642Z,12.75
2023-02-23T08:13:20.962Z,12.18
2023-02-23T08:15:48.900Z,11.57
2023-02-23T08:18:17.735Z,12.32
2023-02-23T08:20:45.874Z,11.55
2023-02-23T08:23:13.923Z,12.27
2023-02-23T08:25:42.089Z,12.25
2023-02-23T08:28:12.305Z,12.35
2023-02-23T08:30:42.805Z,11.23
2023-02-23T08:33:14.488Z,12.15
2023-02-23T08:35:42.742Z,12.35
2023-02-23T08:38:10.992Z,11.68
2023-02-23T08:40:41.160Z,11.65
2023-02-23T08:43:09.197Z,12.52
2023-02-23T08:45:37.875Z,11.45
2023-02-23T08:48:10.417Z,12.10
2023-02-23T08:50:40.636Z,11.93
2023-02-23T08:53:09.083Z,11.93
2023-02-23T08:55:39.298Z,12.07
2023-02-23T08:58:09.375Z,11.68
2023-02-23T09:00:37.867Z,11.88
2023-02-23T09:03:08.669Z,12.18
2023-02-23T09:05:38.593Z,12.02
2023-02-23T09:08:07.234Z,11.52
2023-02-23T09:10:35.774Z,12.23
2023-02-23T09:13:04.069Z,11.68
2023-02-23T09:15:34.451Z,11.80
2023-02-23T09:18:02.986Z,11.98
2023-02-23T09:20:32.708Z,11.05
2023-02-23T09:23:01.186Z,12.48
2023-02-23T09:25:32.406Z,11.70
2023-02-23T09:28:00.606Z,11.40
2023-02-23T09:30:29.142Z,11.20
2023-02-23T09:32:57.479Z,11.68
2023-02-23T09:35:26.290Z,11.23
2023-02-23T09:37:57.108Z,11.23
2023-02-23T09:40:27.402Z,10.23
2023-02-23T09:43:02.608Z,9.40
2023-02-23T09:45:41.072Z,9.75
2023-02-23T09:48:17.801Z,10.35
2023-02-23T09:50:49.936Z,9.85
2023-02-23T09:53:33.690Z,9.43
2023-02-23T09:56:06.569Z,10.40
2023-02-23T09:58:35.938Z,9.50
2023-02-23T10:01:29.719Z,8.70
2023-02-23T10:04:06.118Z,9.05
2023-02-23T10:06:35.109Z,8.15
2023-02-23T10:09:15.528Z,8.13
2023-02-23T10:11:50.723Z,7.40
2023-02-23T10:14:28.710Z,7.90
2023-02-23T10:17:09.894Z,7.38
2023-02-23T10:19:45.252Z,8.15
2023-02-23T10:22:15.775Z,7.47
2023-02-23T10:24:52.129Z,7.65
2023-02-23T10:27:23.413Z,7.43
2023-02-23T10:29:54.874Z,7.25
2023-02-23T10:32:33.794Z,7.55
2023-02-23T10:35:02.631Z,7.22
2023-02-23T10:37:30.908Z,6.85
2023-02-23T10:40:08.228Z,6.80
2023-02-23T10:42:36.373Z,7.43
2023-02-23T10:45:04.505Z,6.00
2023-02-23T10:47:35.622Z,7.05
2023-02-23T10:50:06.540Z,7.00
2023-02-23T10:52:42.286Z,7.05
2023-02-23T10:55:24.571Z,6.63
2023-02-23T10:58:03.640Z,5.82
2023-02-23T11:00:33.601Z,5.85
2023-02-23T11:03:04.428Z,6.28
2023-02-23T11:05:36.910Z,6.15
2023-02-23T11:08:29.442Z,6.40
2023-02-23T11:11:08.363Z,6.18
2023-02-23T11:13:40.479Z,5.63
2023-02-23T11:16:13.487Z,6.05
2023-02-23T11:18:45.691Z,5.68
2023-02-23T11:21:18.913Z,6.15
2023-02-23T11:23:47.191Z,5.95
2023-02-23T11:26:31.803Z,5.68
2023-02-23T11:29:05.637Z,6.00
2023-02-23T11:31:35.907Z,6.22
2023-02-23T11:34:06.597Z,6.30
2023-02-23T11:36:37.844Z,5.28
2023-02-23T11:39:22.934Z,5.32
2023-02-23T11:42:11.661Z,4.97
2023-02-23T11:44:39.704Z,5.05
2023-02-23T11:47:19.073Z,5.13
2023-02-23T11:49:49.264Z,5.25
2023-02-23T11:52:21.127Z,4.72
2023-02-23T11:54:54.285Z,4.53
2023-02-23T11:57:27.374Z,4.78
2023-02-23T11:59:59.184Z,4.82
2023-02-23T12:02:31.978Z,4.95
2023-02-23T12:05:08.324Z,4.33
2023-02-23T12:07:45.186Z,4.88
2023-02-23T12:10:21.744Z,5.00
2023-02-23T12:13:01.423Z,4.85
2023-02-23T12:15:37.113Z,5.00
2023-02-23T12:18:15.491Z,4.90
2023-02-23T12:20:48.612Z,3.60
2023-02-23T12:23:21.370Z,3.33
2023-02-23T12:25:53.144Z,3.17
2023-02-23T12:28:32.142Z,3.50
2023-02-23T12:31:03.906Z,3.67
2023-02-23T12:33:39.578Z,3.72
2023-02-23T12:36:18.351Z,2.50
2023-02-23T12:38:53.136Z,2.80
2023-02-23T12:41:32.977Z,3.38
2023-02-23T12:44:13.350Z,3.55
2023-02-23T12:46:49.330Z,2.90
2023-02-23T12:49:26.373Z,3.03
2023-02-23T12:52:02.171Z,3.00
2023-02-23T12:54:30.575Z,3.47
2023-02-23T12:57:11.136Z,3.30
2023-02-23T13:00:27.082Z,5.22
2023-02-23T13:03:14.986Z,5.80
2023-02-23T13:05:49.826Z,5.70
2023-02-23T13:08:26.997Z,5.55
2023-02-23T13:11:07.035Z,5.10
2023-02-23T13:13:44.009Z,5.72
2023-02-23T13:16:20.743Z,5.65
2023-02-23T13:18:55.048Z,5.72
2023-02-23T13:21:29.926Z,6.30
2023-02-23T13:24:02.957Z,5.32
2023-02-23T13:26:39.100Z,5.38
2023-02-23T13:29:16.227Z,5.30
2023-02-23T13:31:46.429Z,5.07
2023-02-23T13:34:22.523Z,4.80
2023-02-23T13:36:51.417Z,5.15
2023-02-23T13:39:47.654Z,5.20
2023-02-23T13:42:44.220Z,5.10
2023-02-23T13:45:37.688Z,5.55
2023-02-23T13:48:18.693Z,5.85
2023-02-23T13:50:56.342Z,5.88
2023-02-23T13:53:34.867Z,4.80
2023-02-23T13:56:08.668Z,4.68
2023-02-23T13:58:37.348Z,5.47
2023-02-23T14:01:18.487Z,4.88
2023-02-23T14:03:57.767Z,4.65
2023-02-23T14:06:29.814Z,5.10
2023-02-23T14:09:01.679Z,4.22
2023-02-23T14:11:37.543Z,4.07
2023-02-23T14:14:06.008Z,3.65
2023-02-23T14:16:34.097Z,4.40
2023-02-23T14:19:13.119Z,3.95
2023-02-23T14:21:50.862Z,4.25
2023-02-23T14:24:23.433Z,3.80
2023-02-23T14:27:38.550Z,3.70
2023-02-23T14:30:20.851Z,3.72
2023-02-23T14:32:50.949Z,2.78
2023-02-23T14:35:44.633Z,2.63
2023-02-23T14:38:45.806Z,2.20
2023-02-23T14:41:16.016Z,2.67
2023-02-23T14:43:46.382Z,2.17
2023-02-23T14:46:20.326Z,2.47
2023-02-23T14:49:01.823Z,2.05
2023-02-23T14:51:39.767Z,2.20
2023-02-23T14:54:18.147Z,2.00
2023-02-23T14:56:51.043Z,2.63
2023-02-23T14:59:21.984Z,2.15
2023-02-23T15:01:51.753Z,2.08
2023-02-23T15:04:22.555Z,2.28
2023-02-23T15:06:56.227Z,2.00
2023-02-23T15:09:33.255Z,2.05
2023-02-23T15:12:05.917Z,2.03
2023-02-23T15:14:39.146Z,2.00
2023-02-23T15:17:10.998Z,1.77
2023-02-23T15:19:39.662Z,1.85
2023-02-23T15:22:10.297Z,1.60
2023-02-23T15:24:46.455Z,1.90
2023-02-23T15:27:19.337Z,1.80
2023-02-23T15:29:47.468Z,2.13
2023-02-23T15:32:20.880Z,1.80
2023-02-23T15:34:49.933Z,1.60
2023-02-23T15:37:25.479Z,1.90
2023-02-23T15:39:58.355Z,2.08
2023-02-23T15:42:30.029Z,2.20
2023-02-23T15:45:01.450Z,2.20
2023-02-23T15:47:35.379Z,2.05
2023-02-23T15:50:09.482Z,2.05
2023-02-23T15:52:48.932Z,1.98
2023-02-23T15:55:21.845Z,2.33
2023-02-23T15:58:07.936Z,2.08
2023-02-23T16:00:41.015Z,2.47
2023-02-23T16:03:24.968Z,2.17
2023-02-23T16:06:04.550Z,2.47
2023-02-23T16:08:36.987Z,2.47
2023-02-23T16:11:14.459Z,2.37
2023-02-23T16:13:44.894Z,2.40
2023-02-23T16:16:19.463Z,2.30
2023-02-23T16:18:53.013Z,2.40
2023-02-23T16:23:54.171Z,2.70
2023-02-23T16:26:27.783Z,2.25
2023-02-23T16:28:59.725Z,2.60
2023-02-23T16:31:45.497Z,2.90
2023-02-23T16:34:29.218Z,2.85
2023-02-23T16:37:01.077Z,2.70
2023-02-23T16:39:34.294Z,2.80
2023-02-23T16:42:02.469Z,2.97
2023-02-23T16:44:43.861Z,2.53
2023-02-23T16:47:30.175Z,2.50
2023-02-23T16:50:00.758Z,2.40
2023-02-23T16:52:30.811Z,2.50
2023-02-23T16:55:00.205Z,2.47
2023-02-23T16:57:36.232Z,2.50
2023-02-23T17:00:14.482Z,2.15
2023-02-23T17:02:46.062Z,2.70
2023-02-23T17:05:15.772Z,2.72
2023-02-23T17:07:43.785Z,2.38
2023-02-23T17:10:25.675Z,2.60
2023-02-23T17:12:57.130Z,2.67
2023-02-23T17:15:29.167Z,3.38
2023-02-23T17:17:57.366Z,2.75
2023-02-23T17:20:26.262Z,2.63
2023-02-23T17:22:57.820Z,2.92
2023-02-23T17:25:27.403Z,3.05
2023-02-23T17:27:56.321Z,3.30
2023-02-23T17:30:26.336Z,4.28
2023-02-23T17:32:56.565Z,3.10
2023-02-23T17:35:27.713Z,3.67
2023-02-23T17:37:56.943Z,2.95
2023-02-23T17:40:29.198Z,4.10
2023-02-23T17:42:59.336Z,3.40
2023-02-23T17:45:27.963Z,3.17
2023-02-23T17:47:56.579Z,3.15
2023-02-23T17:50:26.984Z,3.40
2023-02-23T17:52:56.821Z,4.03
2023-02-23T17:55:26.881Z,3.88
2023-02-23T17:57:54.851Z,3.63
2023-02-23T18:00:24.941Z,3.13
2023-02-23T18:02:53.016Z,3.50
2023-02-23T18:05:21.646Z,3.92
2023-02-23T18:07:49.697Z,3.70
2023-02-23T18:10:18.492Z,3.10
2023-02-23T18:12:47.922Z,4.00
2023-02-23T18:15:17.364Z,3.13
2023-02-23T18:17:45.376Z,3.17
2023-02-23T18:20:14.959Z,3.78
2023-02-23T18:22:43.616Z,3.42
2023-02-23T18:25:20.848Z,3.13
2023-02-23T18:27:55.282Z,3.33
2023-02-23T18:30:27.483Z,3.45
2023-02-23T18:33:02.083Z,3.38
2023-02-23T18:35:36.043Z,2.80
2023-02-23T18:38:05.308Z,2.95
2023-02-23T18:40:33.907Z,3.72
2023-02-23T18:43:03.536Z,2.92
2023-02-23T18:45:31.822Z,3.35
2023-02-23T18:47:59.903Z,3.30
2023-02-23T18:50:28.237Z,3.35
2023-02-23T18:53:00.125Z,3.85
2023-02-23T18:55:28.571Z,3.90
2023-02-23T18:57:56.774Z,4.50
2023-02-23T19:00:27.442Z,4.22
2023-02-23T19:02:55.553Z,3.90
2023-02-23T19:05:24.151Z,3.88
2023-02-23T19:07:52.168Z,3.70
2023-02-23T19:10:21.388Z,3.47
2023-02-23T19:12:49.297Z,5.00
2023-02-23T19:15:17.498Z,4.40
2023-02-23T19:17:48.212Z,4.47
2023-02-23T19:20:17.178Z,4.03
2023-02-23T19:22:45.827Z,3.55
2023-02-23T19:25:15.039Z,4.65
2023-02-23T19:27:43.396Z,3.67
2023-02-23T19:30:14.244Z,3.97
2023-02-23T19:32:43.681Z,4.65
2023-02-23T19:35:17.683Z,3.80
2023-02-23T19:37:48.418Z,3.80
2023-02-23T19:40:20.705Z,3.55
2023-02-23T19:42:49.558Z,3.15
2023-02-23T19:45:19.643Z,3.60
2023-02-23T19:47:47.689Z,3.60
2023-02-23T19:50:18.898Z,4.00
2023-02-23T19:52:48.148Z,3.92
2023-02-23T19:55:16.450Z,4.32
2023-02-23T19:57:44.702Z,3.95
2023-02-23T20:00:13.734Z,4.13
2023-02-23T20:02:43.799Z,4.30
2023-02-23T20:05:12.606Z,4.03
2023-02-23T20:07:42.182Z,4.85
2023-02-23T20:10:13.867Z,4.30
2023-02-23T20:12:42.269Z,3.72
2023-02-23T20:15:15.200Z,4.32
2023-02-23T20:17:43.243Z,4.45
2023-02-23T20:20:12.628Z,4.80
2023-02-23T20:22:43.308Z,4.55
2023-02-23T20:25:15.742Z,5.75
2023-02-23T20:27:45.271Z,4.53
2023-02-23T20:30:14.778Z,5.40
2023-02-23T20:32:42.868Z,5.47
2023-02-23T20:35:13.115Z,5.65
2023-02-23T20:37:42.770Z,6.28
2023-02-23T20:40:17.013Z,5.40
2023-02-23T20:42:48.543Z,5.13
2023-02-23T20:45:18.440Z,5.10
2023-02-23T20:47:46.947Z,5.53
2023-02-23T20:50:16.015Z,4.68
2023-02-23T20:52:47.857Z,5.30
2023-02-23T20:55:19.514Z,6.00
2023-02-23T20:57:51.546Z,5.93
2023-02-23T21:00:23.190Z,4.78
2023-02-23T21:02:55.588Z,5.32
2023-02-23T21:05:26.151Z,4.93
2023-02-23T21:07:59.892Z,4.35
2023-02-23T21:10:31.496Z,4.47
2023-02-23T21:12:59.843Z,3.90
2023-02-23T21:15:29.280Z,4.30
2023-02-23T21:17:57.752Z,4.32
2023-02-23T21:20:27.497Z,4.30
2023-02-23T21:22:57.091Z,4.20
2023-02-23T21:25:26.980Z,4.30
2023-02-23T21:27:56.889Z,4.72
2023-02-23T21:30:28.381Z,4.35
2023-02-23T21:32:57.727Z,3.90
2023-02-23T21:35:25.836Z,4.03
2023-02-23T21:37:53.989Z,4.40
2023-02-23T21:40:26.080Z,4.50
2023-02-23T21:42:54.149Z,4.13
2023-02-23T21:45:22.137Z,4.57
2023-02-23T21:47:51.414Z,4.35
2023-02-23T21:50:21.123Z,4.43
2023-02-23T21:52:53.153Z,4.28
2023-02-23T21:55:23.901Z,3.80
2023-02-23T21:57:53.451Z,4.47
2023-02-23T22:00:23.112Z,4.30
2023-02-23T22:02:52.572Z,3.97
2023-02-23T22:05:21.574Z,3.72
2023-02-23T22:07:51.007Z,3.83
2023-02-23T22:10:21.313Z,3.58
2023-02-23T22:12:55.781Z,4.03
2023-02-23T22:15:28.257Z,4.00
2023-02-23T22:17:56.873Z,3.92
2023-02-23T22:20:25.582Z,3.75
2023-02-23T22:22:53.670Z,3.55
2023-02-23T22:25:21.806Z,3.22
2023-02-23T22:27:51.202Z,3.83
2023-02-23T22:30:22.714Z,4.05
2023-02-23T22:32:52.289Z,3.70
2023-02-23T22:35:20.544Z,3.38
2023-02-23T22:37:48.805Z,4.13
2023-02-23T22:40:17.229Z,3.85
2023-02-23T22:42:48.911Z,3.35
2023-02-23T22:45:17.276Z,3.20
2023-02-23T22:47:46.564Z,3.60
2023-02-23T22:50:18.317Z,3.30
2023-02-23T22:52:47.191Z,3.30
2023-02-23T22:55:15.248Z,3.13
2023-02-23T22:57:43.946Z,3.58
2023-02-23T23:00:15.463Z,3.55
2023-02-23T23:02:44.708Z,3.47
2023-02-23T23:05:13.946Z,3.70
2023-02-23T23:07:46.729Z,3.78
2023-02-23T23:10:15.666Z,3.60
2023-02-23T23:12:46.250Z,3.42
2023-02-23T23:15:18.907Z,3.22
2023-02-23T23:17:48.994Z,4.38
2023-02-23T23:20:23.024Z,3.97
2023-02-23T23:22:52.890Z,3.70
2023-02-23T23:25:23.459Z,3.25
2023-02-23T23:27:53.757Z,3.45
2023-02-23T23:30:25.895Z,3.67
2023-02-23T23:32:54.239Z,3.63
2023-02-23T23:35:22.781Z,3.97
2023-02-23T23:37:54.725Z,3.92
2023-02-23T23:40:24.831Z,3.63
2023-02-23T23:42:55.327Z,3.90
2023-02-23T23:45:25.646Z,3.70
2023-02-23T23:47:53.765Z,3.83
2023-02-23T23:50:26.802Z,3.97
2023-02-23T23:52:57.051Z,3.72
2023-02-23T23:55:31.197Z,3.70
2023-02-23T23:58:00.164Z,3.40
